createdAt,value
2019-03-09T00:01:45.722Z,8.63
2019-03-09T00:04:52.435Z,6.80
2019-03-09T00:07:58.987Z,7.37
2019-03-09T00:11:05.487Z,7.50
2019-03-09T00:14:12.405Z,7.27
2019-03-09T00:17:18.866Z,8.80
2019-03-09T00:20:25.112Z,9.30
2019-03-09T00:23:49.437Z,6.70
2019-03-09T00:27:13.981Z,10.73
2019-03-09T00:30:24.417Z,11.23
2019-03-09T00:33:31.230Z,7.10
2019-03-09T00:36:38.207Z,9.77
2019-03-09T00:39:44.518Z,6.30
2019-03-09T00:42:50.988Z,11.27
2019-03-09T00:45:57.556Z,10.17
2019-03-09T00:49:03.972Z,19.30
2019-03-09T00:52:10.203Z,8.00
2019-03-09T00:55:17.045Z,8.03
2019-03-09T00:58:23.483Z,6.83
2019-03-09T01:01:30.588Z,8.70
2019-03-09T01:04:37.083Z,6.70
2019-03-09T01:07:43.340Z,4.73
2019-03-09T01:10:50.219Z,10.10
2019-03-09T01:13:57.063Z,8.23
2019-03-09T01:17:04.924Z,10.97
2019-03-09T01:20:13.915Z,10.53
2019-03-09T01:23:20.463Z,3.30
2019-03-09T01:26:27.154Z,10.97
2019-03-09T01:29:33.633Z,7.47
2019-03-09T01:32:40.447Z,7.43
2019-03-09T01:35:47.417Z,10.40
2019-03-09T01:38:53.814Z,7.07
2019-03-09T01:42:00.206Z,7.77
2019-03-09T01:45:07.866Z,8.23
2019-03-09T01:48:14.600Z,8.47
2019-03-09T01:51:22.295Z,6.10
2019-03-09T01:54:28.882Z,7.70
2019-03-09T01:57:35.071Z,7.40
2019-03-09T02:00:41.813Z,2.43
2019-03-09T02:03:48.362Z,2.50
2019-03-09T02:06:54.784Z,3.70
2019-03-09T02:10:01.372Z,5.97
2019-03-09T02:13:09.859Z,4.33
2019-03-09T02:16:16.377Z,5.47
2019-03-09T02:19:22.959Z,8.80
2019-03-09T02:22:29.698Z,5.13
2019-03-09T02:25:36.592Z,3.83
2019-03-09T02:28:43.085Z,5.37
2019-03-09T02:31:49.436Z,2.10
2019-03-09T02:34:56.177Z,3.27
2019-03-09T02:38:09.477Z,3.90
2019-03-09T02:41:16.320Z,4.63
2019-03-09T02:44:23.039Z,3.57
2019-03-09T02:47:29.752Z,3.23
2019-03-09T02:50:38.161Z,3.87
2019-03-09T02:53:44.740Z,2.80
2019-03-09T02:56:51.592Z,2.60
2019-03-09T02:59:58.075Z,4.63
2019-03-09T03:03:05.710Z,5.10
2019-03-09T03:06:12.728Z,5.50
2019-03-09T03:09:19.110Z,6.53
2019-03-09T03:12:26.436Z,3.60
2019-03-09T03:15:36.253Z,5.83
2019-03-09T03:18:44.722Z,8.40
2019-03-09T03:21:50.967Z,4.43
2019-03-09T03:24:57.550Z,3.83
2019-03-09T03:28:04.290Z,4.10
2019-03-09T03:31:10.865Z,7.47
2019-03-09T03:34:17.916Z,6.30
2019-03-09T03:37:24.887Z,7.50
2019-03-09T03:40:31.134Z,3.67
2019-03-09T03:43:38.883Z,3.90
2019-03-09T03:46:45.214Z,8.43
2019-03-09T03:49:51.965Z,4.07
2019-03-09T03:52:58.350Z,1.53
2019-03-09T03:56:05.219Z,6.30
2019-03-09T03:59:12.003Z,3.70
2019-03-09T04:02:18.789Z,10.70
2019-03-09T04:05:25.193Z,6.30
2019-03-09T04:08:32.082Z,2.83
2019-03-09T04:11:38.603Z,6.50
2019-03-09T04:14:45.290Z,3.07
2019-03-09T04:17:51.610Z,10.10
2019-03-09T04:21:01.728Z,3.00
2019-03-09T04:24:06.990Z,2.43
2019-03-09T04:27:13.792Z,4.73
2019-03-09T04:30:21.268Z,8.63
2019-03-09T04:33:28.637Z,9.73
2019-03-09T04:36:35.532Z,9.07
2019-03-09T04:39:42.085Z,5.27
2019-03-09T04:42:48.526Z,9.30
2019-03-09T04:45:55.170Z,2.20
2019-03-09T04:49:01.816Z,2.63
2019-03-09T04:52:08.121Z,4.87
2019-03-09T04:55:14.602Z,2.33
2019-03-09T04:58:21.399Z,2.97
2019-03-09T05:01:28.367Z,4.73
2019-03-09T05:04:43.042Z,1.83
2019-03-09T05:08:10.266Z,1.93
2019-03-09T05:11:21.604Z,3.23
2019-03-09T05:14:28.313Z,2.03
2019-03-09T05:17:34.536Z,4.53
2019-03-09T05:20:41.429Z,2.40
2019-03-09T05:23:48.139Z,3.60
2019-03-09T05:26:54.860Z,1.10
2019-03-09T05:30:01.360Z,3.20
2019-03-09T05:33:08.384Z,1.07
2019-03-09T05:36:15.861Z,1.10
2019-03-09T05:39:22.415Z,2.10
2019-03-09T05:42:30.318Z,1.70
2019-03-09T05:45:36.656Z,1.07
2019-03-09T05:48:45.228Z,1.43
2019-03-09T05:52:27.240Z,2.17
2019-03-09T05:55:33.843Z,1.47
2019-03-09T05:58:40.701Z,0.50
2019-03-09T06:01:48.210Z,0.60
2019-03-09T06:04:54.841Z,0.60
2019-03-09T06:08:02.061Z,1.93
2019-03-09T06:11:08.630Z,0.60
2019-03-09T06:14:16.525Z,0.70
2019-03-09T06:17:22.821Z,0.73
2019-03-09T06:20:29.270Z,1.30
2019-03-09T06:23:36.282Z,1.03
2019-03-09T06:26:43.527Z,0.60
2019-03-09T06:29:49.925Z,2.67
2019-03-09T06:33:32.648Z,2.30
2019-03-09T06:37:06.826Z,1.17
2019-03-09T06:40:13.335Z,0.70
2019-03-09T06:43:20.136Z,3.50
2019-03-09T06:46:27.505Z,6.70
2019-03-09T06:49:33.991Z,2.60
2019-03-09T06:52:41.224Z,0.80
2019-03-09T06:55:47.500Z,0.80
2019-03-09T06:58:53.857Z,1.23
2019-03-09T07:02:00.381Z,0.70
2019-03-09T07:05:08.057Z,3.97
2019-03-09T07:08:14.666Z,1.27
2019-03-09T07:11:21.487Z,1.27
2019-03-09T07:15:17.646Z,0.60
2019-03-09T07:18:31.245Z,0.50
2019-03-09T07:21:38.953Z,1.03
2019-03-09T07:24:45.726Z,2.27
2019-03-09T07:28:07.569Z,0.37
2019-03-09T07:31:14.403Z,1.90
2019-03-09T07:34:25.086Z,0.40
2019-03-09T07:37:32.293Z,0.30
2019-03-09T07:40:39.726Z,1.27
2019-03-09T07:43:46.610Z,0.40
2019-03-09T07:46:53.793Z,1.43
2019-03-09T07:50:00.529Z,0.30
2019-03-09T07:53:07.881Z,0.30
2019-03-09T07:56:14.818Z,1.80
2019-03-09T07:59:22.252Z,0.43
2019-03-09T08:02:34.572Z,0.40
2019-03-09T08:05:43.053Z,0.40
2019-03-09T08:08:50.108Z,8.47
2019-03-09T08:11:58.142Z,0.40
2019-03-09T08:15:05.259Z,0.30
2019-03-09T08:18:11.952Z,0.30
2019-03-09T08:21:19.166Z,0.30
2019-03-09T08:24:26.272Z,0.20
2019-03-09T08:27:32.876Z,0.20
2019-03-09T08:30:40.327Z,0.40
2019-03-09T08:33:47.517Z,0.40
2019-03-09T08:36:54.233Z,0.20
2019-03-09T08:40:00.870Z,0.63
2019-03-09T08:43:08.717Z,0.30
2019-03-09T08:46:16.444Z,0.20
2019-03-09T08:49:25.979Z,0.20
2019-03-09T08:52:32.780Z,0.40
2019-03-09T08:55:39.690Z,0.30
2019-03-09T08:58:46.211Z,0.57
2019-03-09T09:01:52.549Z,0.40
2019-03-09T09:04:59.053Z,0.77
2019-03-09T09:08:06.062Z,0.60
2019-03-09T09:11:12.990Z,0.47
2019-03-09T09:14:19.787Z,0.60
2019-03-09T09:17:26.524Z,0.73
2019-03-09T09:20:33.350Z,0.63
2019-03-09T09:23:41.364Z,2.93
2019-03-09T09:26:48.188Z,0.80
2019-03-09T09:29:54.968Z,0.80
2019-03-09T09:33:01.439Z,1.33
2019-03-09T09:36:08.142Z,1.13
2019-03-09T09:39:14.756Z,0.73
2019-03-09T09:42:21.630Z,3.53
2019-03-09T09:45:28.337Z,0.90
2019-03-09T09:48:34.672Z,0.93
2019-03-09T09:51:43.053Z,2.63
2019-03-09T09:54:49.650Z,1.90
2019-03-09T09:57:56.190Z,1.40
2019-03-09T10:01:03.337Z,0.70
2019-03-09T10:04:09.659Z,1.03
2019-03-09T10:07:16.537Z,1.63
2019-03-09T10:10:23.514Z,1.10
2019-03-09T10:13:30.229Z,3.93
2019-03-09T10:16:37.368Z,1.90
2019-03-09T10:19:44.171Z,1.10
2019-03-09T10:22:51.290Z,1.47
2019-03-09T10:25:58.446Z,1.40
2019-03-09T10:29:05.757Z,0.73
2019-03-09T10:32:12.464Z,1.43
2019-03-09T10:35:19.372Z,2.50
2019-03-09T10:38:27.953Z,1.00
2019-03-09T10:41:35.650Z,0.70
2019-03-09T10:44:42.644Z,0.90
2019-03-09T10:47:49.696Z,1.00
2019-03-09T10:50:56.508Z,0.77
2019-03-09T10:54:03.131Z,1.90
2019-03-09T10:57:10.028Z,0.80
2019-03-09T11:00:23.044Z,1.00
2019-03-09T11:03:29.821Z,1.23
2019-03-09T11:06:38.308Z,1.30
2019-03-09T11:09:45.105Z,0.97
2019-03-09T11:12:55.064Z,0.87
2019-03-09T11:16:01.610Z,1.00
2019-03-09T11:19:08.596Z,0.77
2019-03-09T11:22:15.424Z,2.30
2019-03-09T11:25:21.932Z,0.87
2019-03-09T11:28:28.944Z,0.87
2019-03-09T11:31:36.486Z,0.73
2019-03-09T11:34:44.505Z,1.80
2019-03-09T11:37:52.102Z,0.67
2019-03-09T11:41:00.815Z,0.63
2019-03-09T11:44:08.107Z,0.93
2019-03-09T11:47:14.894Z,0.60
2019-03-09T11:50:22.176Z,0.53
2019-03-09T11:53:28.977Z,0.40
2019-03-09T11:56:36.667Z,0.40
2019-03-09T11:59:43.520Z,0.60
2019-03-09T12:02:50.385Z,0.47
2019-03-09T12:05:58.116Z,0.50
2019-03-09T12:09:05.747Z,0.70
2019-03-09T12:12:14.752Z,0.97
2019-03-09T12:15:21.224Z,0.60
2019-03-09T12:18:28.264Z,0.60
2019-03-09T12:21:35.493Z,0.80
2019-03-09T12:24:42.529Z,0.70
2019-03-09T12:27:49.410Z,0.70
2019-03-09T12:30:56.295Z,0.70
2019-03-09T12:34:03.200Z,1.03
2019-03-09T12:37:10.798Z,1.13
2019-03-09T12:40:18.128Z,0.83
2019-03-09T12:43:25.238Z,1.00
2019-03-09T12:46:31.936Z,2.10
2019-03-09T12:49:38.336Z,1.03
2019-03-09T12:53:05.368Z,0.90
2019-03-09T12:56:13.498Z,0.80
2019-03-09T12:59:20.111Z,4.17
2019-03-09T13:02:27.143Z,0.60
2019-03-09T13:05:33.859Z,0.60
2019-03-09T13:08:40.699Z,2.83
2019-03-09T13:11:47.481Z,0.70
2019-03-09T13:14:54.219Z,0.40
2019-03-09T13:18:04.897Z,0.97
2019-03-09T13:21:13.046Z,4.30
2019-03-09T13:24:20.045Z,0.60
2019-03-09T13:27:27.460Z,2.27
2019-03-09T13:30:35.079Z,11.93
2019-03-09T13:33:42.879Z,5.10
2019-03-09T13:36:51.690Z,4.10
2019-03-09T13:39:58.142Z,1.40
2019-03-09T13:43:07.089Z,2.30
2019-03-09T13:46:14.010Z,1.10
2019-03-09T13:49:20.883Z,0.60
2019-03-09T13:52:27.861Z,1.00
2019-03-09T13:55:34.851Z,4.50
2019-03-09T13:58:41.890Z,1.60
2019-03-09T14:01:49.665Z,1.90
2019-03-09T14:04:56.921Z,1.10
2019-03-09T14:08:04.052Z,2.17
2019-03-09T14:11:10.817Z,0.90
2019-03-09T14:14:18.329Z,1.20
2019-03-09T14:17:25.944Z,0.80
2019-03-09T14:20:33.049Z,1.20
2019-03-09T14:23:42.658Z,4.57
2019-03-09T14:26:49.409Z,1.80
2019-03-09T14:29:56.308Z,1.67
2019-03-09T14:33:03.007Z,0.90
2019-03-09T14:36:10.139Z,1.00
2019-03-09T14:39:16.962Z,1.30
2019-03-09T14:42:24.051Z,0.80
2019-03-09T14:45:32.369Z,0.70
2019-03-09T14:48:39.062Z,1.00
2019-03-09T14:51:46.692Z,1.73
2019-03-09T14:54:53.819Z,1.17
2019-03-09T14:58:00.946Z,1.33
2019-03-09T15:01:07.649Z,1.83
2019-03-09T15:04:14.649Z,2.60
2019-03-09T15:07:23.630Z,0.90
2019-03-09T15:10:34.271Z,1.17
2019-03-09T15:13:41.970Z,1.10
2019-03-09T15:16:51.881Z,1.03
2019-03-09T15:19:59.399Z,1.03
2019-03-09T15:23:09.719Z,1.00
2019-03-09T15:26:16.982Z,1.13
2019-03-09T15:29:23.560Z,1.23
2019-03-09T15:32:29.828Z,1.30
2019-03-09T15:35:37.674Z,0.90
2019-03-09T15:38:44.462Z,0.70
2019-03-09T15:41:52.380Z,0.77
2019-03-09T15:44:59.272Z,1.00
2019-03-09T15:48:08.030Z,0.73
2019-03-09T15:51:15.086Z,1.00
2019-03-09T15:54:22.545Z,0.63
2019-03-09T15:57:29.634Z,0.80
2019-03-09T16:00:39.388Z,3.80
2019-03-09T16:03:50.685Z,1.40
2019-03-09T16:07:01.571Z,0.53
2019-03-09T16:10:11.446Z,0.53
2019-03-09T16:13:19.337Z,1.70
2019-03-09T16:16:28.602Z,0.50
2019-03-09T16:19:38.059Z,0.60
2019-03-09T16:22:45.320Z,1.70
2019-03-09T16:25:52.861Z,0.23
2019-03-09T16:29:00.313Z,0.40
2019-03-09T16:32:08.023Z,0.20
2019-03-09T16:35:15.141Z,0.20
2019-03-09T16:38:21.792Z,0.20
2019-03-09T16:41:34.571Z,0.40
2019-03-09T16:44:43.309Z,1.00
2019-03-09T16:47:50.416Z,0.90
2019-03-09T16:50:57.496Z,1.23
2019-03-09T16:54:04.424Z,0.90
2019-03-09T16:57:11.641Z,0.90
2019-03-09T17:00:20.513Z,0.53
2019-03-09T17:03:27.799Z,1.37
2019-03-09T17:06:35.137Z,1.03
2019-03-09T17:09:42.442Z,0.67
2019-03-09T17:12:51.455Z,1.80
2019-03-09T17:15:58.933Z,1.53
2019-03-09T17:19:06.333Z,1.97
2019-03-09T17:22:13.228Z,1.70
2019-03-09T17:25:19.907Z,10.77
2019-03-09T17:28:27.955Z,1.43
2019-03-09T17:31:35.529Z,0.90
2019-03-09T17:34:42.187Z,4.53
2019-03-09T17:37:49.412Z,1.33
2019-03-09T17:40:56.323Z,3.27
2019-03-09T17:44:02.962Z,5.13
2019-03-09T17:47:10.361Z,5.40
2019-03-09T17:50:17.280Z,6.37
2019-03-09T17:53:24.817Z,7.20
2019-03-09T17:56:31.681Z,5.53
2019-03-09T17:59:38.767Z,5.90
2019-03-09T18:02:45.515Z,9.20
2019-03-09T18:05:52.256Z,9.33
2019-03-09T18:08:58.876Z,8.93
2019-03-09T18:12:06.597Z,11.30
2019-03-09T18:15:13.111Z,7.80
2019-03-09T18:18:19.969Z,8.30
2019-03-09T18:21:28.539Z,8.90
2019-03-09T18:24:35.975Z,7.90
2019-03-09T18:27:42.792Z,2.60
2019-03-09T18:30:49.432Z,4.60
2019-03-09T18:33:56.569Z,3.33
2019-03-09T18:37:03.973Z,1.17
2019-03-09T18:40:11.331Z,3.03
2019-03-09T18:43:18.147Z,3.63
2019-03-09T18:46:25.535Z,1.13
2019-03-09T18:49:32.679Z,5.10
2019-03-09T18:52:39.246Z,2.43
2019-03-09T18:55:46.187Z,0.73
2019-03-09T18:58:53.327Z,3.00
2019-03-09T19:02:00.133Z,3.20
2019-03-09T19:05:06.943Z,4.10
2019-03-09T19:08:13.942Z,2.00
2019-03-09T19:11:20.381Z,0.63
2019-03-09T19:14:26.991Z,0.43
2019-03-09T19:17:33.985Z,3.20
2019-03-09T19:20:40.481Z,0.70
2019-03-09T19:23:47.288Z,3.80
2019-03-09T19:26:53.725Z,2.73
2019-03-09T19:30:00.724Z,2.53
2019-03-09T19:33:08.799Z,1.43
2019-03-09T19:36:15.509Z,1.77
2019-03-09T19:39:22.053Z,2.63
2019-03-09T19:42:28.782Z,3.03
2019-03-09T19:45:37.119Z,1.07
2019-03-09T19:48:44.160Z,3.70
2019-03-09T19:51:50.981Z,1.60
2019-03-09T19:54:57.458Z,1.70
2019-03-09T19:58:04.020Z,1.87
2019-03-09T20:01:10.240Z,2.63
2019-03-09T20:04:16.740Z,3.33
2019-03-09T20:07:23.661Z,3.60
2019-03-09T20:10:32.498Z,2.47
2019-03-09T20:13:39.209Z,4.20
2019-03-09T20:16:46.227Z,10.87
2019-03-09T20:19:52.881Z,1.30
2019-03-09T20:22:59.507Z,4.57
2019-03-09T20:26:06.131Z,4.83
2019-03-09T20:29:13.058Z,2.63
2019-03-09T20:32:19.572Z,3.90
2019-03-09T20:35:27.388Z,2.07
2019-03-09T20:38:35.366Z,0.97
2019-03-09T20:41:42.915Z,1.47
2019-03-09T20:44:49.549Z,2.37
2019-03-09T20:47:56.382Z,2.27
2019-03-09T20:51:03.041Z,6.90
2019-03-09T20:54:10.526Z,7.67
2019-03-09T20:57:17.210Z,5.70
2019-03-09T21:00:23.751Z,1.60
2019-03-09T21:03:30.558Z,3.47
2019-03-09T21:06:40.888Z,2.77
2019-03-09T21:09:48.422Z,1.07
2019-03-09T21:13:08.998Z,2.13
2019-03-09T21:16:15.618Z,1.93
2019-03-09T21:19:22.109Z,2.23
2019-03-09T21:22:28.609Z,4.20
2019-03-09T21:25:36.797Z,7.57
2019-03-09T21:28:43.931Z,2.17
2019-03-09T21:31:52.231Z,3.83
2019-03-09T21:34:59.211Z,4.93
2019-03-09T21:38:06.164Z,5.13
2019-03-09T21:41:13.243Z,5.50
2019-03-09T21:44:20.777Z,3.47
2019-03-09T21:47:32.154Z,9.50
2019-03-09T21:50:39.144Z,7.03
2019-03-09T21:53:46.851Z,4.77
2019-03-09T21:56:53.852Z,3.63
2019-03-09T22:00:01.543Z,5.23
2019-03-09T22:03:10.034Z,4.10
2019-03-09T22:06:17.204Z,2.50
2019-03-09T22:09:24.724Z,1.90
2019-03-09T22:12:36.824Z,4.10
2019-03-09T22:15:45.269Z,4.07
2019-03-09T22:18:52.499Z,3.97
2019-03-09T22:21:59.995Z,5.40
2019-03-09T22:25:09.146Z,1.43
2019-03-09T22:28:16.140Z,3.23
2019-03-09T22:31:23.444Z,4.30
2019-03-09T22:34:31.118Z,9.97
2019-03-09T22:37:37.986Z,2.57
2019-03-09T22:40:45.848Z,5.70
2019-03-09T22:43:54.443Z,5.13
2019-03-09T22:47:11.204Z,3.33
2019-03-09T22:50:13.364Z,1.80
2019-03-09T22:53:21.004Z,5.13
2019-03-09T22:56:27.898Z,4.53
2019-03-09T22:59:35.420Z,7.57
2019-03-09T23:02:44.599Z,12.13
2019-03-09T23:05:51.982Z,5.40
2019-03-09T23:08:58.477Z,8.53
2019-03-09T23:12:05.459Z,6.40
2019-03-09T23:15:13.445Z,13.10
2019-03-09T23:18:20.019Z,5.80
2019-03-09T23:21:27.648Z,5.50
2019-03-09T23:24:35.594Z,3.03
2019-03-09T23:27:42.447Z,5.00
2019-03-09T23:30:54.678Z,10.10
2019-03-09T23:34:01.715Z,6.53
2019-03-09T23:37:09.219Z,2.20
2019-03-09T23:40:16.834Z,7.87
2019-03-09T23:43:23.358Z,10.23
2019-03-09T23:46:30.614Z,4.50
2019-03-09T23:49:41.348Z,13.97
2019-03-09T23:52:48.721Z,16.20
2019-03-09T23:55:55.442Z,8.40
2019-03-09T23:59:02.450Z,26.20
